| time (UTC) | temp C | wind direction | speed KPH | gust KPH | rain 1hr cm | rain 24hr cm | rain mn cm | humidity % | barometer mb |
| 20260509161535 | 27 | 314 | 9.7 | 22.5 | 0.00 | 0.15 | 0.00 | 56 | 1010.2 |
| 20260509160037 | 27 | 298 | 12.9 | 20.9 | 0.00 | 0.15 | 0.00 | 60 | 1010.1 |
| 20260509154532 | 26 | 294 | 12.9 | 20.9 | 0.00 | 0.15 | 0.00 | 62 | 1010.2 |
| 20260509153039 | 26 | 299 | 9.7 | 24.1 | 0.00 | 0.15 | 0.00 | 61 | 1010.2 |
| 20260509151530 | 26 | 310 | 9.7 | 19.3 | 0.00 | 0.15 | 0.00 | 66 | 1009.9 |
| 20260509150030 | 25 | 360 | 8.0 | 17.7 | 0.00 | 0.15 | 0.00 | 72 | 1010.1 |
| 20260509144534 | 24 | 317 | 4.8 | 17.7 | 0.00 | 0.15 | 0.00 | 76 | 1010.2 |
| 20260509143031 | 24 | 321 | 6.4 | 17.7 | 0.00 | 0.15 | 0.00 | 77 | 1010.2 |
| 20260509141532 | 23 | 314 | 9.7 | 16.1 | 0.00 | 0.15 | 0.00 | 80 | 1010.4 |
| 20260509140035 | 23 | 315 | 12.9 | 17.7 | 0.00 | 0.15 | 0.00 | 81 | 1010.2 |
| 20260509134529 | 22 | 305 | 9.7 | 14.5 | 0.00 | 0.15 | 0.00 | 84 | 1010.1 |
| 20260509133032 | 22 | 297 | 11.3 | 19.3 | 0.00 | 0.15 | 0.00 | 87 | 1009.9 |
| 20260509131535 | 21 | 339 | 11.3 | 17.7 | 0.00 | 0.15 | 0.00 | 91 | 1009.8 |
| 20260509130032 | 21 | 268 | 3.2 | 9.7 | 0.00 | 0.15 | 0.00 | 93 | 1009.3 |
| 20260509124530 | 20 | 0 | 0.0 | 3.2 | 0.00 | 0.15 | 0.00 | 93 | 1009.4 |
| 20260509123034 | 20 | 0 | 1.6 | 6.4 | 0.00 | 0.15 | 0.00 | 93 | 1009.4 |
| 20260509121534 | 20 | 204 | 3.2 | 6.4 | 0.00 | 0.15 | 0.00 | 93 | 1009.4 |
| 20260509120037 | 20 | 208 | 1.6 | 3.2 | 0.00 | 0.15 | 0.00 | 93 | 1009.6 |
| 20260509114533 | 20 | 253 | 3.2 | 11.3 | 0.00 | 0.15 | 0.00 | 93 | 1009.7 |
| 20260509113029 | 20 | 266 | 1.6 | 6.4 | 0.00 | 0.15 | 0.00 | 93 | 1009.5 |
| 20260509111531 | 20 | 278 | 4.8 | 14.5 | 0.00 | 0.15 | 0.00 | 93 | 1009.3 |
| 20260509110035 | 20 | 298 | 4.8 | 19.3 | 0.00 | 0.15 | 0.00 | 94 | 1009.4 |
| 20260509104534 | 20 | 295 | 12.9 | 22.5 | 0.00 | 0.15 | 0.00 | 94 | 1009.2 |
| 20260509103036 | 20 | 297 | 6.4 | 12.9 | 0.00 | 0.15 | 0.00 | 93 | 1008.5 |
| 20260509101544 | 20 | 182 | 9.7 | 27.4 | 0.00 | 0.15 | 0.00 | 93 | 1007.4 |
| 20260509100028 | 20 | 204 | 11.3 | 20.9 | 0.00 | 0.15 | 0.00 | 93 | 1007.0 |
| 20260509094531 | 20 | 206 | 11.3 | 30.6 | 0.00 | 0.15 | 0.00 | 93 | 1006.7 |
| 20260509093031 | 20 | 171 | 12.9 | 27.4 | 0.00 | 0.15 | 0.00 | 93 | 1007.0 |
| 20260509091534 | 20 | 185 | 14.5 | 27.4 | 0.00 | 0.15 | 0.00 | 93 | 1006.8 |
| 20260509090034 | 20 | 189 | 12.9 | 25.7 | 0.00 | 0.15 | 0.00 | 93 | 1007.4 |
| 20260509084531 | 20 | 179 | 8.0 | 17.7 | 0.00 | 0.15 | 0.00 | 93 | 1008.0 |
| 20260509083030 | 20 | 193 | 6.4 | 19.3 | 0.00 | 0.15 | 0.00 | 92 | 1008.7 |
| 20260509081534 | 20 | 198 | 4.8 | 14.5 | 0.00 | 0.15 | 0.00 | 92 | 1009.3 |
| 20260509080035 | 20 | 223 | 6.4 | 14.5 | 0.00 | 0.15 | 0.00 | 92 | 1009.9 |
| 20260509074532 | 20 | 239 | 6.4 | 12.9 | 0.00 | 0.15 | 0.00 | 92 | 1010.7 |
| 20260509073049 | 20 | 259 | 3.2 | 9.7 | 0.00 | 0.15 | 0.00 | 92 | 1010.7 |
| 20260509071535 | 20 | 265 | 4.8 | 9.7 | 0.00 | 0.15 | 0.00 | 92 | 1010.6 |
| 20260509070032 | 20 | 200 | 3.2 | 6.4 | 0.00 | 0.15 | 0.00 | 91 | 1010.3 |
| 20260509064534 | 20 | 293 | 0.0 | 6.4 | 0.00 | 0.15 | 0.00 | 91 | 1010.7 |
| 20260509063032 | 20 | 0 | 0.0 | 4.8 | 0.00 | 0.15 | 0.00 | 91 | 1010.6 |
| 20260509061531 | 20 | 360 | 1.6 | 4.8 | 0.00 | 0.15 | 0.00 | 90 | 1010.7 |
| 20260509060044 | 20 | 0 | 0.0 | 0.0 | 0.00 | 0.15 | 0.00 | 90 | 1010.3 |
| 20260509054530 | 20 | 0 | 0.0 | 3.2 | 0.00 | 0.15 | 0.00 | 90 | 1009.9 |
| 20260509053035 | 21 | 175 | 1.6 | 4.8 | 0.00 | 0.15 | 0.00 | 90 | 1010.1 |
| 20260509051533 | 21 | 175 | 4.8 | 11.3 | 0.00 | 0.15 | 0.00 | 89 | 1009.9 |
| 20260509050034 | 21 | 180 | 4.8 | 8.0 | 0.00 | 0.15 | 0.00 | 88 | 1009.9 |
| 20260509044535 | 21 | 0 | 0.0 | 0.0 | 0.00 | 0.15 | 0.15 | 87 | 1010.4 |
| 20260509043035 | 21 | 0 | 0.0 | 8.0 | 0.00 | 0.15 | 0.15 | 87 | 1010.3 |
| 20260509041530 | 22 | 123 | 1.6 | 4.8 | 0.00 | 0.15 | 0.15 | 87 | 1010.1 |
| 20260509040030 | 22 | 162 | 4.8 | 8.0 | 0.00 | 0.15 | 0.15 | 87 | 1010.0 |
| 20260509034546 | 22 | 170 | 4.8 | 9.7 | 0.00 | 0.15 | 0.15 | 87 | 1009.9 |
| 20260509033033 | 22 | 141 | 3.2 | 8.0 | 0.00 | 0.15 | 0.15 | 86 | 1009.8 |
| 20260509031533 | 22 | 148 | 3.2 | 11.3 | 0.00 | 0.15 | 0.15 | 86 | 1009.4 |
| 20260509030033 | 22 | 141 | 4.8 | 11.3 | 0.00 | 0.15 | 0.15 | 86 | 1009.1 |
| 20260509024536 | 22 | 159 | 3.2 | 6.4 | 0.00 | 0.15 | 0.15 | 85 | 1009.1 |
| 20260509023035 | 22 | 155 | 0.0 | 4.8 | 0.00 | 0.15 | 0.15 | 85 | 1009.0 |
| 20260509021536 | 22 | 155 | 0.0 | 4.8 | 0.00 | 0.15 | 0.15 | 85 | 1009.0 |
| 20260509020039 | 22 | 0 | 1.6 | 6.4 | 0.00 | 0.15 | 0.15 | 84 | 1008.7 |
| 20260509014532 | 22 | 141 | 1.6 | 6.4 | 0.00 | 0.15 | 0.15 | 84 | 1008.6 |
| 20260509013038 | 22 | 159 | 3.2 | 6.4 | 0.00 | 0.15 | 0.15 | 83 | 1008.5 |
| 20260509011544 | 22 | 0 | 0.0 | 6.4 | 0.00 | 0.15 | 0.15 | 83 | 1008.5 |
| 20260509010037 | 22 | 158 | 1.6 | 6.4 | 0.00 | 0.15 | 0.15 | 82 | 1008.2 |
| 20260509004540 | 22 | 165 | 4.8 | 12.9 | 0.00 | 0.15 | 0.15 | 81 | 1007.8 |
| 20260509003032 | 23 | 166 | 3.2 | 6.4 | 0.00 | 0.15 | 0.15 | 80 | 1007.8 |
| 20260509001530 | 23 | 104 | 1.6 | 9.7 | 0.00 | 0.15 | 0.15 | 80 | 1007.8 |
| 20260509000034 | 23 | 159 | 4.8 | 11.3 | 0.00 | 0.15 | 0.15 | 80 | 1007.9 |
| 20260508234533 | 23 | 148 | 8.0 | 17.7 | 0.00 | 0.15 | 0.15 | 80 | 1007.9 |
| 20260508233031 | 23 | 164 | 11.3 | 17.7 | 0.00 | 0.15 | 0.15 | 79 | 1008.0 |
| 20260508231530 | 23 | 167 | 9.7 | 17.7 | 0.00 | 0.15 | 0.15 | 79 | 1008.1 |
| 20260508230033 | 23 | 159 | 8.0 | 22.5 | 0.00 | 0.15 | 0.15 | 78 | 1007.9 |
| 20260508224530 | 23 | 162 | 11.3 | 22.5 | 0.00 | 0.15 | 0.15 | 78 | 1008.1 |
| 20260508223041 | 23 | 148 | 11.3 | 20.9 | 0.00 | 0.15 | 0.15 | 77 | 1008.2 |
| 20260508221532 | 23 | 129 | 9.7 | 19.3 | 0.00 | 0.15 | 0.15 | 77 | 1008.3 |
| 20260508220034 | 22 | 148 | 6.4 | 9.7 | 0.00 | 0.15 | 0.15 | 78 | 1008.6 |
| 20260508214538 | 22 | 60 | 3.2 | 6.4 | 0.05 | 0.15 | 0.15 | 80 | 1008.9 |
| 20260508213036 | 21 | 175 | 11.3 | 25.7 | 0.15 | 0.15 | 0.15 | 82 | 1008.7 |
| 20260508211535 | 20 | 162 | 16.1 | 33.8 | 0.15 | 0.15 | 0.15 | 85 | 1008.4 |
| 20260508210031 | 20 | 155 | 16.1 | 25.7 | 0.15 | 0.15 | 0.15 | 85 | 1008.1 |
| 20260508204538 | 21 | 103 | 4.8 | 9.7 | 0.08 | 0.08 | 0.08 | 79 | 1009.9 |
| 20260508203030 | 21 | 181 | 9.7 | 14.5 | 0.00 | 0.00 | 0.00 | 76 | 1010.2 |
| 20260508201532 | 21 | 208 | 6.4 | 14.5 | 0.00 | 0.00 | 0.00 | 74 | 1010.7 |
| 20260508200032 | 22 | 185 | 9.7 | 20.9 | 0.00 | 0.00 | 0.00 | 71 | 1010.8 |
| 20260508194532 | 21 | 183 | 8.0 | 17.7 | 0.00 | 0.00 | 0.00 | 72 | 1010.6 |
| 20260508193036 | 21 | 165 | 9.7 | 16.1 | 0.00 | 0.00 | 0.00 | 71 | 1010.4 |
| 20260508191533 | 21 | 173 | 8.0 | 16.1 | 0.00 | 0.00 | 0.00 | 71 | 1010.8 |
| 20260508190031 | 21 | 164 | 11.3 | 20.9 | 0.00 | 0.00 | 0.00 | 71 | 1010.9 |
| 20260508184533 | 21 | 191 | 8.0 | 17.7 | 0.00 | 0.00 | 0.00 | 72 | 1011.2 |
| 20260508183030 | 21 | 181 | 11.3 | 20.9 | 0.00 | 0.00 | 0.00 | 70 | 1011.6 |
| 20260508181530 | 21 | 164 | 9.7 | 20.9 | 0.00 | 0.00 | 0.00 | 69 | 1011.7 |
| 20260508180030 | 21 | 157 | 8.0 | 16.1 | 0.00 | 0.00 | 0.00 | 68 | 1011.6 |
| 20260508174536 | 21 | 152 | 8.0 | 14.5 | 0.00 | 0.00 | 0.00 | 69 | 1011.7 |
| 20260508173034 | 21 | 145 | 8.0 | 17.7 | 0.00 | 0.00 | 0.00 | 70 | 1012.1 |
| 20260508171540 | 21 | 146 | 12.9 | 19.3 | 0.00 | 0.00 | 0.00 | 68 | 1012.2 |
| 20260508170032 | 21 | 177 | 11.3 | 20.9 | 0.00 | 0.00 | 0.00 | 68 | 1012.4 |
| 20260508164530 | 21 | 147 | 11.3 | 16.1 | 0.00 | 0.00 | 0.00 | 68 | 1012.5 |
| 20260508163040 | 20 | 120 | 8.0 | 17.7 | 0.00 | 0.00 | 0.00 | 71 | 1012.8 |